Terminal Aerodrome Forecast
Issued by NWS Amarillo, TX

Home | Current Version | Previous Version | Text Only | Print | Product List | Glossary On
Versions: 1 2 3 4 5 6 7 8 9 10 11 12 13 14 15 16 17 18
248
FTUS44 KAMA 220322 AAA
TAFDHT
TAF AMD
KDHT 220322Z 2203/2224 35023G34KT P6SM OVC030
      TEMPO 2204/2208 6SM -RASN BR OVC020
     FM221200 33013KT P6SM SCT300=

USA.gov is the U.S. government's official web portal to all federal, state and local government web resources and services.